Time;durP1;ratioP1;P1;durP2;ratioP2;P2;SDS_P1;SDS_P2;PMS_P1;PMS_P2;Temp;Humidity;BMP_temperature;BMP_pressure;BME280_temperature;BME280_humidity;BME280_pressure;Samples;Min_cycle;Max_cycle;Signal;HPM_P1;HPM_P2
2022/08/17 00:00:55;;;;;;;3.03;1.88;;;24.50;56.70;24.70;100123.00;;;;4956798;28;87594;-64
2022/08/17 00:03:36;;;;;;;1.52;1.42;;;24.50;56.80;24.70;100119.00;;;;4959261;28;88723;-64
2022/08/17 00:06:11;;;;;;;1.65;1.55;;;24.50;56.90;24.60;100118.00;;;;4957306;28;88193;-64
2022/08/17 00:08:44;;;;;;;3.25;1.48;;;24.40;56.90;24.60;100114.00;;;;4956573;28;87853;-64
2022/08/17 00:11:20;;;;;;;1.80;1.70;;;24.40;57.00;24.60;100117.00;;;;4956846;28;90384;-64
2022/08/17 00:13:52;;;;;;;1.90;1.80;;;24.40;57.00;24.60;100114.00;;;;4957081;28;88001;-64
2022/08/17 00:16:30;;;;;;;1.85;1.38;;;24.30;56.90;24.60;100122.00;;;;4956797;28;87954;-64
2022/08/17 00:18:57;;;;;;;1.20;1.10;;;24.30;57.10;24.50;100120.00;;;;4956504;28;87684;-64
2022/08/17 00:21:24;;;;;;;1.65;1.55;;;24.30;57.20;24.50;100126.00;;;;4957170;28;87689;-64
2022/08/17 00:23:50;;;;;;;2.13;1.75;;;24.30;57.20;24.50;100119.00;;;;4956047;28;88939;-63
2022/08/17 00:26:18;;;;;;;2.70;1.73;;;24.20;57.20;24.50;100114.00;;;;4956865;28;87916;-64
2022/08/17 00:28:44;;;;;;;2.50;1.98;;;24.20;57.30;24.40;100110.00;;;;4956871;28;86850;-64
2022/08/17 00:31:11;;;;;;;2.42;1.90;;;24.20;57.30;24.40;100121.00;;;;4956262;28;108396;-64
2022/08/17 00:33:39;;;;;;;2.70;2.20;;;24.20;57.50;24.40;100107.00;;;;4954213;28;116791;-64
2022/08/17 00:36:06;;;;;;;2.40;2.20;;;24.10;57.50;24.30;100103.00;;;;4955446;28;88921;-64
2022/08/17 00:38:33;;;;;;;2.42;1.75;;;24.10;57.60;24.30;100108.00;;;;4956125;28;87832;-64
2022/08/17 00:41:13;;;;;;;5.18;1.95;;;24.10;57.70;24.30;100119.00;;;;4956771;28;87529;-63
2022/08/17 00:43:50;;;;;;;3.38;2.08;;;24.10;57.70;24.30;100110.00;;;;4955292;28;108005;-64
2022/08/17 00:46:20;;;;;;;3.13;2.40;;;24.00;57.70;24.30;100113.00;;;;4956725;28;88027;-64
2022/08/17 00:48:47;;;;;;;1.80;1.70;;;24.00;57.70;24.30;100116.00;;;;4945889;28;87688;-64
2022/08/17 00:51:30;;;;;;;2.28;2.00;;;24.00;57.80;24.20;100107.00;;;;4949658;28;87913;-64
2022/08/17 00:54:23;;;;;;;4.88;2.15;;;24.00;57.90;24.20;100112.00;;;;4953496;28;99405;-64
2022/08/17 00:56:58;;;;;;;2.13;1.85;;;24.00;58.00;24.20;100110.00;;;;4954161;28;88148;-64
2022/08/17 00:59:31;;;;;;;2.28;1.98;;;23.90;58.00;24.20;100120.00;;;;4955592;28;101141;-64
2022/08/17 01:01:57;;;;;;;3.30;2.78;;;23.90;58.10;24.10;100121.00;;;;4970916;28;89057;-64
2022/08/17 01:04:26;;;;;;;3.05;2.35;;;23.90;58.20;24.10;100117.00;;;;4955238;28;117970;-63
2022/08/17 01:06:53;;;;;;;4.65;2.58;;;23.90;58.40;24.00;100114.00;;;;4970548;28;91264;-64
2022/08/17 01:09:19;;;;;;;3.90;2.28;;;23.80;58.50;24.00;100120.00;;;;4954048;28;87758;-63
2022/08/17 01:11:51;;;;;;;2.38;2.13;;;23.80;58.70;23.90;100116.00;;;;4955810;28;87745;-64
2022/08/17 01:14:22;;;;;;;3.63;2.30;;;23.70;58.90;23.90;100117.00;;;;4955129;28;89342;-64
2022/08/17 01:16:50;;;;;;;2.38;1.80;;;23.60;59.00;23.80;100118.00;;;;4955768;28;87731;-63
2022/08/17 01:19:21;;;;;;;6.78;2.78;;;23.60;59.20;23.70;100127.00;;;;4970819;28;87038;-64
2022/08/17 01:21:57;;;;;;;2.50;2.03;;;23.50;59.30;23.70;100117.00;;;;4970877;28;87990;-63
2022/08/17 01:24:23;;;;;;;3.05;2.15;;;23.50;59.40;23.60;100117.00;;;;4969786;28;106975;-64
2022/08/17 01:26:49;;;;;;;2.38;2.13;;;23.40;59.50;23.60;100119.00;;;;4955412;28;90813;-64
2022/08/17 01:29:15;;;;;;;3.33;2.08;;;23.40;59.70;23.50;100119.00;;;;4955009;28;100125;-63
2022/08/17 01:31:49;;;;;;;2.95;2.35;;;23.30;59.80;23.40;100120.00;;;;4955944;28;87854;-63
2022/08/17 01:34:17;;;;;;;2.15;1.95;;;23.30;60.10;23.40;100125.00;;;;4954104;28;88488;-63
2022/08/17 01:36:47;;;;;;;2.88;2.20;;;23.20;60.30;23.30;100124.00;;;;4954141;28;117869;-63
2022/08/17 01:39:43;;;;;;;2.65;2.20;;;23.10;60.60;23.20;100119.00;;;;4954220;28;102855;-63
2022/08/17 01:42:44;;;;;;;2.50;2.15;;;23.00;61.00;23.00;100123.00;;;;4956079;28;87990;-63
2022/08/17 01:45:24;;;;;;;3.42;2.33;;;22.90;61.30;23.00;100120.00;;;;4955218;28;106105;-63
2022/08/17 01:47:51;;;;;;;1.77;1.45;;;22.80;61.60;22.90;100119.00;;;;4952394;28;88060;-63
2022/08/17 01:50:33;;;;;;;4.97;2.55;;;22.70;61.80;22.80;100123.00;;;;4936059;28;88303;-63
2022/08/17 01:53:10;;;;;;;4.18;2.63;;;22.60;62.10;22.70;100113.00;;;;4946083;28;88877;-63
2022/08/17 01:55:53;;;;;;;6.47;2.22;;;22.50;62.50;22.60;100114.00;;;;4954334;28;109962;-64
2022/08/17 01:58:20;;;;;;;3.90;2.47;;;22.40;62.90;22.50;100120.00;;;;4954029;28;107184;-63
2022/08/17 02:00:50;;;;;;;3.00;2.60;;;22.30;63.00;22.40;100120.00;;;;4954679;28;110334;-63
2022/08/17 02:03:17;;;;;;;3.92;2.17;;;22.20;63.20;22.40;100113.00;;;;4955093;28;87799;-64
2022/08/17 02:05:44;;;;;;;2.13;1.92;;;22.20;63.50;22.30;100119.00;;;;4954371;28;104424;-63
2022/08/17 02:08:11;;;;;;;3.65;2.40;;;22.10;63.80;22.20;100118.00;;;;4954129;28;110937;-63
2022/08/17 02:10:36;;;;;;;3.65;2.17;;;22.00;64.00;22.20;100124.00;;;;4954836;28;87043;-63
2022/08/17 02:13:03;;;;;;;1.98;1.88;;;22.00;64.20;22.10;100120.00;;;;4954057;28;110090;-63
2022/08/17 02:15:30;;;;;;;2.83;2.35;;;21.90;64.40;22.00;100120.00;;;;4955530;28;92379;-63
2022/08/17 02:17:56;;;;;;;2.80;2.47;;;21.80;64.90;21.90;100128.00;;;;4954652;28;88837;-63
2022/08/17 02:20:22;;;;;;;3.00;2.00;;;21.80;65.20;21.80;100123.00;;;;4954423;28;110647;-63
2022/08/17 02:22:48;;;;;;;1.80;1.70;;;21.70;65.60;21.80;100130.00;;;;4955140;28;109036;-63
2022/08/17 02:25:19;;;;;;;2.10;1.63;;;21.60;65.80;21.70;100122.00;;;;4969728;28;88105;-63
2022/08/17 02:27:45;;;;;;;2.38;2.08;;;21.50;66.00;21.60;100121.00;;;;4968870;28;88906;-63
2022/08/17 02:30:13;;;;;;;3.00;2.60;;;21.50;66.30;21.60;100118.00;;;;4954802;28;87707;-63
2022/08/17 02:32:39;;;;;;;2.55;2.35;;;21.40;66.50;21.50;100120.00;;;;4954470;28;87850;-63
2022/08/17 02:35:07;;;;;;;2.25;2.05;;;21.40;66.70;21.50;100114.00;;;;4954200;28;104483;-63
2022/08/17 02:37:34;;;;;;;2.00;1.90;;;21.30;67.00;21.40;100108.00;;;;4954737;28;88030;-63
2022/08/17 02:40:00;;;;;;;2.13;1.92;;;21.30;67.50;21.30;100112.00;;;;4954836;28;87934;-63
2022/08/17 02:42:32;;;;;;;3.78;2.15;;;21.20;67.90;21.30;100106.00;;;;4954214;28;88975;-63
2022/08/17 02:44:59;;;;;;;2.60;2.40;;;21.10;68.30;21.20;100113.00;;;;4954786;28;88807;-63
2022/08/17 02:47:25;;;;;;;2.60;2.13;;;21.10;68.70;21.10;100112.00;;;;4954279;28;87860;-63
2022/08/17 02:49:52;;;;;;;2.60;2.30;;;21.00;69.20;21.00;100114.00;;;;4939228;28;110774;-63
2022/08/17 02:52:18;;;;;;;2.38;2.00;;;20.90;69.50;20.90;100116.00;;;;4954864;28;88159;-63
2022/08/17 02:54:44;;;;;;;3.05;2.20;;;20.80;70.00;20.90;100112.00;;;;4953307;28;118947;-63
2022/08/17 02:57:09;;;;;;;3.05;2.72;;;20.70;70.40;20.80;100118.00;;;;4954430;28;88573;-63
2022/08/17 02:59:36;;;;;;;4.82;2.83;;;20.70;71.10;20.70;100129.00;;;;4957534;28;109485;-63
2022/08/17 03:02:04;;;;;;;3.92;2.72;;;20.60;71.60;20.70;100119.00;;;;4958025;28;87749;-63
2022/08/17 03:04:30;;;;;;;3.30;2.53;;;20.50;72.10;20.60;100128.00;;;;4957227;28;108610;-63
2022/08/17 03:06:56;;;;;;;4.20;2.25;;;20.50;72.50;20.50;100127.00;;;;4956098;28;115666;-63
2022/08/17 03:09:22;;;;;;;3.45;2.80;;;20.40;72.80;20.50;100127.00;;;;4956552;28;109314;-63
2022/08/17 03:11:49;;;;;;;1.80;1.52;;;20.40;72.90;20.50;100120.00;;;;4957601;28;108096;-63
2022/08/17 03:14:15;;;;;;;3.17;2.20;;;20.30;73.20;20.40;100118.00;;;;4957502;28;89319;-63
2022/08/17 03:16:41;;;;;;;3.60;2.63;;;20.30;73.40;20.40;100118.00;;;;4957722;28;88790;-63
2022/08/17 03:19:07;;;;;;;4.45;2.70;;;20.30;73.80;20.40;100120.00;;;;4956640;28;109568;-63
2022/08/17 03:21:32;;;;;;;3.15;2.83;;;20.20;74.30;20.30;100111.00;;;;4956458;28;109328;-63
2022/08/17 03:23:58;;;;;;;2.40;1.85;;;20.20;74.70;20.30;100110.00;;;;4957071;28;115939;-63
2022/08/17 03:26:24;;;;;;;3.53;2.22;;;20.10;75.20;20.20;100108.00;;;;4957854;28;87738;-63
2022/08/17 03:28:49;;;;;;;2.72;2.28;;;20.10;75.60;20.10;100113.00;;;;4956820;28;101543;-63
2022/08/17 03:31:17;;;;;;;2.40;2.20;;;20.00;76.00;20.10;100113.00;;;;4957015;28;88769;-63
2022/08/17 03:33:43;;;;;;;6.97;2.60;;;20.00;76.60;20.00;100109.00;;;;4957083;28;89136;-63
2022/08/17 03:36:09;;;;;;;2.65;2.00;;;19.90;77.00;20.00;100101.00;;;;4956651;28;109171;-63
2022/08/17 03:38:34;;;;;;;3.30;2.55;;;19.90;77.40;20.00;100107.00;;;;4956277;28;101832;-63
2022/08/17 03:41:00;;;;;;;4.18;2.42;;;19.80;77.70;19.90;100103.00;;;;4956333;28;106460;-63
2022/08/17 03:43:30;;;;;;;2.83;2.05;;;19.80;78.20;19.90;100098.00;;;;4956973;28;89018;-62
2022/08/17 03:57:09;;;;;;;2.95;2.60;;;19.60;80.00;19.70;100096.00;;;;4953156;28;88842;-63
2022/08/17 03:59:36;;;;;;;2.83;2.05;;;19.60;80.40;19.70;100096.00;;;;4957058;28;87931;-63
2022/08/17 04:02:08;;;;;;;3.75;2.97;;;19.50;80.70;19.60;100093.00;;;;4956519;28;93854;-63
2022/08/17 04:04:35;;;;;;;3.97;2.28;;;19.50;81.20;19.60;100094.00;;;;4971621;28;88130;-63
2022/08/17 04:07:01;;;;;;;2.85;1.88;;;19.50;81.50;19.60;100097.00;;;;4957981;28;88063;-63
2022/08/17 04:09:27;;;;;;;4.15;2.35;;;19.50;81.60;19.60;100094.00;;;;4955087;28;100208;-63
2022/08/17 04:11:53;;;;;;;3.13;2.83;;;19.40;81.80;19.60;100095.00;;;;4955884;28;104224;-63
2022/08/17 04:14:19;;;;;;;3.33;2.60;;;19.40;82.20;19.60;100096.00;;;;4957582;28;87896;-63
2022/08/17 04:16:45;;;;;;;2.53;2.28;;;19.40;82.60;19.50;100104.00;;;;4957247;28;99325;-63
2022/08/17 04:19:11;;;;;;;2.60;2.35;;;19.40;82.90;19.50;100093.00;;;;4956210;28;87459;-63
2022/08/17 04:21:36;;;;;;;4.45;2.97;;;19.30;83.30;19.50;100100.00;;;;4956949;28;89855;-63
2022/08/17 04:24:03;;;;;;;2.38;2.15;;;19.30;83.70;19.50;100107.00;;;;4955287;28;117940;-63
2022/08/17 04:26:30;;;;;;;2.25;2.05;;;19.30;84.10;19.50;100104.00;;;;4956947;28;90411;-63
2022/08/17 04:28:57;;;;;;;2.88;2.53;;;19.30;84.50;19.50;100107.00;;;;4956646;28;87772;-63
2022/08/17 04:31:24;;;;;;;3.15;2.38;;;19.30;84.80;19.50;100103.00;;;;4956550;28;87960;-63
2022/08/17 04:33:50;;;;;;;2.80;2.17;;;19.40;85.00;19.60;100108.00;;;;4956517;28;88866;-63
2022/08/17 04:36:16;;;;;;;4.97;2.53;;;19.40;85.10;19.60;100114.00;;;;4957000;28;98186;-63
2022/08/17 04:38:44;;;;;;;3.78;2.47;;;19.40;85.50;19.60;100107.00;;;;4955869;28;107943;-63
2022/08/17 04:43:57;;;;;;;3.30;2.13;;;19.50;86.00;19.60;100111.00;;;;4953489;28;88073;-63
2022/08/17 04:46:31;;;;;;;2.35;2.15;;;19.50;86.20;19.70;100108.00;;;;4952524;28;88861;-63
2022/08/17 04:48:59;;;;;;;1.80;1.65;;;19.50;86.40;19.70;100114.00;;;;4953201;28;88014;-64
2022/08/17 04:51:46;;;;;;;3.22;2.30;;;19.50;86.50;19.80;100127.00;;;;4947094;28;87854;-63
2022/08/17 04:54:16;;;;;;;3.67;2.60;;;19.60;86.90;19.90;100125.00;;;;4951090;28;88080;-64
2022/08/17 04:56:43;;;;;;;3.90;2.47;;;19.70;87.20;20.00;100130.00;;;;4952740;28;88794;-64
2022/08/17 04:59:16;;;;;;;3.22;2.17;;;19.80;87.30;20.00;100133.00;;;;4951604;28;100589;-64
2022/08/17 05:01:45;;;;;;;4.25;2.55;;;19.80;87.30;20.20;100134.00;;;;4952387;28;87748;-63
2022/08/17 05:04:19;;;;;;;2.85;2.08;;;19.90;87.30;20.30;100142.00;;;;4951852;28;88148;-64
2022/08/17 05:06:45;;;;;;;2.50;2.30;;;20.10;87.40;20.40;100146.00;;;;4952941;28;88345;-64
2022/08/17 05:09:11;;;;;;;5.45;3.20;;;20.20;87.40;20.60;100151.00;;;;4951959;28;94087;-64
2022/08/17 05:11:37;;;;;;;4.45;2.22;;;20.40;87.30;20.80;100146.00;;;;4951552;28;105025;-64
2022/08/17 05:14:03;;;;;;;2.40;2.13;;;20.50;87.20;20.90;100147.00;;;;4954863;28;89238;-64
2022/08/17 05:16:29;;;;;;;3.75;2.42;;;20.60;87.00;21.10;100141.00;;;;4955117;28;116436;-64
2022/08/17 05:18:57;;;;;;;5.68;2.78;;;20.80;86.90;21.30;100145.00;;;;4955302;28;95411;-64
2022/08/17 05:21:24;;;;;;;4.03;2.75;;;21.00;86.70;21.40;100140.00;;;;4955054;28;87690;-64
2022/08/17 05:23:49;;;;;;;4.13;2.90;;;21.10;86.30;21.60;100143.00;;;;4955206;28;93188;-65
2022/08/17 05:26:19;;;;;;;5.75;3.53;;;21.30;86.10;21.70;100147.00;;;;4954962;28;116103;-65
2022/08/17 05:28:45;;;;;;;3.30;2.65;;;21.50;85.70;21.90;100147.00;;;;4955972;28;87280;-65
2022/08/17 05:31:10;;;;;;;3.13;2.58;;;21.60;85.20;22.10;100149.00;;;;4955022;28;110312;-65
2022/08/17 05:33:39;;;;;;;5.22;3.38;;;21.80;84.90;22.30;100140.00;;;;4956193;28;88037;-65
2022/08/17 05:36:08;;;;;;;3.92;2.90;;;22.00;84.50;22.50;100139.00;;;;4955397;28;89030;-65
2022/08/17 05:38:34;;;;;;;2.55;2.35;;;22.20;83.90;22.80;100145.00;;;;4954961;28;99855;-65
2022/08/17 05:41:05;;;;;;;2.80;2.30;;;22.40;83.20;23.00;100136.00;;;;4955052;28;87673;-66
2022/08/17 05:43:36;;;;;;;4.05;3.05;;;22.70;82.50;23.30;100144.00;;;;4936053;28;88837;-65
2022/08/17 05:46:15;;;;;;;3.03;2.45;;;22.90;81.60;23.50;100151.00;;;;4936289;28;88610;-65
2022/08/17 05:48:48;;;;;;;2.95;1.90;;;23.20;80.80;23.80;100140.00;;;;4947432;28;87920;-65
2022/08/17 05:51:25;;;;;;;9.10;3.05;;;23.40;79.90;24.00;100152.00;;;;4941755;28;87757;-65
2022/08/17 05:54:32;;;;;;;2.75;2.33;;;23.60;79.10;24.20;100156.00;;;;4955411;28;88493;-65
2022/08/17 05:57:19;;;;;;;2.63;2.42;;;23.90;78.30;24.50;100148.00;;;;4955207;28;87719;-64
2022/08/17 06:00:17;;;;;;;4.45;2.70;;;24.10;77.40;24.80;100150.00;;;;4955191;28;92456;-65
2022/08/17 06:03:28;;;;;;;3.03;2.42;;;24.40;76.50;25.10;100149.00;;;;4954104;28;88678;-65
2022/08/17 06:06:23;;;;;;;3.28;2.17;;;24.70;75.40;25.40;100153.00;;;;4955333;28;88379;-65
2022/08/17 06:09:26;;;;;;;3.97;3.03;;;25.00;74.30;25.60;100156.00;;;;4954182;28;88017;-64
2022/08/17 06:12:12;;;;;;;2.40;2.20;;;25.30;73.00;25.90;100159.00;;;;4955180;28;87715;-65
2022/08/17 06:15:15;;;;;;;5.32;3.17;;;25.60;72.30;26.10;100160.00;;;;4970596;28;87838;-64
2022/08/17 06:17:42;;;;;;;3.55;2.63;;;25.70;71.30;26.30;100166.00;;;;4969062;28;94429;-65
2022/08/17 06:20:12;;;;;;;3.10;2.35;;;26.00;70.50;26.50;100167.00;;;;4954241;28;117539;-65
2022/08/17 06:22:52;;;;;;;3.28;2.63;;;26.20;69.40;26.70;100169.00;;;;4952862;28;87305;-65
2022/08/17 06:25:45;;;;;;;4.13;2.30;;;26.30;68.30;26.90;100176.00;;;;4952312;28;101614;-65
2022/08/17 06:28:15;;;;;;;2.88;1.58;;;26.60;67.70;27.10;100171.00;;;;4931513;28;110966;-65
2022/08/17 06:30:56;;;;;;;3.25;2.45;;;26.80;67.00;27.30;100178.00;;;;4952390;28;88655;-65
2022/08/17 06:33:31;;;;;;;3.05;2.15;;;27.00;66.00;27.50;100180.00;;;;4957395;28;87688;-65
2022/08/17 06:36:22;;;;;;;2.75;2.42;;;27.20;64.90;27.60;100181.00;;;;4972602;28;87936;-65
2022/08/17 06:39:22;;;;;;;2.22;1.85;;;27.30;63.80;27.70;100177.00;;;;4956547;28;88124;-64
2022/08/17 06:42:09;;;;;;;3.50;2.33;;;27.50;63.10;27.90;100176.00;;;;4942292;28;87991;-65
2022/08/17 06:44:48;;;;;;;4.30;2.47;;;27.60;62.30;28.10;100176.00;;;;4958941;28;87777;-65
2022/08/17 06:47:30;;;;;;;2.58;2.30;;;27.80;61.70;28.40;100177.00;;;;4956574;28;88155;-65
2022/08/17 06:50:26;;;;;;;4.93;2.63;;;28.00;60.90;28.70;100169.00;;;;4938050;28;102958;-65
2022/08/17 06:53:13;;;;;;;4.05;2.35;;;28.30;60.00;29.00;100182.00;;;;4949714;28;87601;-65
2022/08/17 06:55:46;;;;;;;4.90;2.55;;;28.60;59.20;29.30;100181.00;;;;4955443;28;87809;-65
2022/08/17 06:58:14;;;;;;;4.05;2.05;;;28.90;58.50;29.60;100179.00;;;;4955795;28;92706;-65
2022/08/17 07:00:44;;;;;;;2.53;1.90;;;29.20;57.90;29.90;100181.00;;;;4955791;28;112782;-65
2022/08/17 07:03:27;;;;;;;3.92;2.47;;;29.50;57.20;30.20;100191.00;;;;4956294;28;88434;-65
2022/08/17 07:06:02;;;;;;;1.98;1.77;;;29.80;55.90;30.40;100181.00;;;;4957875;28;87857;-65
2022/08/17 07:08:36;;;;;;;2.35;1.73;;;30.10;55.20;30.70;100184.00;;;;4949104;28;87875;-65
2022/08/17 07:11:22;;;;;;;1.83;1.60;;;30.30;54.60;31.00;100186.00;;;;4957539;28;88057;-65
2022/08/17 07:13:53;;;;;;;3.67;1.88;;;30.60;53.90;31.30;100187.00;;;;4971995;28;96013;-65
2022/08/17 07:16:27;;;;;;;3.08;2.17;;;30.90;53.20;31.60;100187.00;;;;4958288;28;87021;-66
2022/08/17 07:18:55;;;;;;;2.60;1.98;;;31.20;52.30;31.90;100189.00;;;;4939613;28;101088;-65
2022/08/17 07:21:53;;;;;;;2.55;1.95;;;31.50;51.50;32.20;100188.00;;;;4956015;28;88715;-65
2022/08/17 07:24:52;;;;;;;2.65;1.92;;;31.80;51.00;32.50;100185.00;;;;4955149;28;88727;-66
2022/08/17 07:27:31;;;;;;;1.92;1.30;;;32.10;50.40;32.80;100187.00;;;;4956464;28;103770;-66
2022/08/17 07:30:20;;;;;;;4.32;2.10;;;32.30;49.70;33.00;100182.00;;;;4972781;28;87715;-65
2022/08/17 07:33:01;;;;;;;4.22;2.10;;;32.60;49.30;33.20;100196.00;;;;4937559;28;88635;-64
2022/08/17 07:35:27;;;;;;;2.97;2.17;;;32.90;48.60;33.40;100190.00;;;;4937495;28;101330;-64
2022/08/17 07:38:14;;;;;;;3.28;2.60;;;33.10;48.30;33.60;100196.00;;;;4937153;28;110926;-65
2022/08/17 07:41:03;;;;;;;2.17;1.83;;;33.30;47.70;33.80;100192.00;;;;4938158;28;87969;-66
2022/08/17 07:43:38;;;;;;;2.47;1.65;;;33.40;47.00;34.00;100187.00;;;;4937601;28;87239;-65
2022/08/17 07:49:17;;;;;;;1.52;1.33;;;33.80;46.20;34.30;100192.00;;;;4926185;28;87694;-66
2022/08/17 07:51:42;;;;;;;1.90;1.75;;;34.00;45.80;34.50;100190.00;;;;4924363;28;89035;-65
2022/08/17 07:54:14;;;;;;;2.85;2.25;;;34.10;45.10;34.70;100193.00;;;;4937760;28;87986;-66
2022/08/17 07:56:42;;;;;;;2.25;1.77;;;34.30;44.70;34.80;100197.00;;;;4936994;28;98642;-65
2022/08/17 07:59:35;;;;;;;3.65;2.08;;;34.40;44.20;35.00;100206.00;;;;4937148;28;87726;-65
2022/08/17 08:02:13;;;;;;;5.45;2.88;;;34.60;44.30;35.10;100198.00;;;;4937334;28;87744;-65
2022/08/17 08:05:02;;;;;;;3.15;2.00;;;34.80;42.90;35.20;100196.00;;;;4936900;28;88869;-65
2022/08/17 08:07:49;;;;;;;4.65;1.85;;;34.80;42.60;35.30;100200.00;;;;4922595;28;87764;-65
2022/08/17 08:10:39;;;;;;;3.22;2.13;;;34.90;42.40;35.30;100205.00;;;;4937412;28;86951;-66
2022/08/17 08:13:24;;;;;;;1.58;1.48;;;35.00;41.60;35.40;100209.00;;;;4937282;28;87892;-65
2022/08/17 08:16:23;;;;;;;2.10;1.65;;;35.00;41.80;35.50;100206.00;;;;4936984;28;88123;-65
2022/08/17 08:18:53;;;;;;;2.53;1.77;;;35.10;41.10;35.70;100201.00;;;;4932239;28;88638;-65
2022/08/17 08:21:46;;;;;;;2.97;1.42;;;35.30;40.60;35.70;100200.00;;;;4934991;28;87692;-66
2022/08/17 08:24:21;;;;;;;1.80;1.60;;;35.40;40.30;35.90;100193.00;;;;4952224;28;87936;-65
2022/08/17 08:27:27;;;;;;;3.53;1.95;;;35.50;40.10;36.00;100198.00;;;;4936787;28;97170;-66
2022/08/17 08:30:06;;;;;;;2.35;1.90;;;35.60;39.70;36.10;100192.00;;;;4951436;28;87720;-66
2022/08/17 08:32:38;;;;;;;2.45;1.70;;;35.70;39.40;36.20;100193.00;;;;4937521;28;87911;-65
2022/08/17 08:35:42;;;;;;;1.55;1.40;;;35.80;39.10;36.40;100189.00;;;;4936680;28;87623;-65
2022/08/17 08:38:29;;;;;;;3.80;2.15;;;35.90;39.30;36.50;100195.00;;;;4936827;28;87276;-65
2022/08/17 08:41:15;;;;;;;1.95;1.75;;;36.10;38.70;36.60;100195.00;;;;4936595;28;88142;-66
2022/08/17 08:44:35;;;;;;;1.85;1.70;;;36.20;38.40;36.60;100193.00;;;;4936736;28;87735;-66
2022/08/17 08:47:33;;;;;;;2.08;1.70;;;36.30;37.70;36.50;100197.00;;;;4950966;28;88849;-66
2022/08/17 08:50:27;;;;;;;2.95;1.75;;;36.20;37.20;36.40;100192.00;;;;4931670;28;87640;-65
2022/08/17 08:53:00;;;;;;;1.95;1.80;;;36.00;38.00;36.60;100190.00;;;;4922912;28;111943;-65
2022/08/17 08:55:47;;;;;;;2.10;1.90;;;36.10;38.20;36.70;100193.00;;;;4950108;28;87844;-65
2022/08/17 08:58:33;;;;;;;2.58;1.60;;;36.20;38.00;36.90;100200.00;;;;4936836;28;87641;-65
2022/08/17 09:01:15;;;;;;;2.28;1.70;;;36.40;37.80;37.10;100193.00;;;;4951354;28;87886;-66
2022/08/17 09:04:14;;;;;;;2.28;1.67;;;36.60;37.10;37.20;100189.00;;;;4950646;28;103419;-65
2022/08/17 09:07:06;;;;;;;2.22;1.80;;;36.70;36.30;37.30;100193.00;;;;4937449;28;86799;-65
2022/08/17 09:09:59;;;;;;;1.70;1.60;;;36.80;36.10;37.30;100188.00;;;;4937427;28;88254;-66
2022/08/17 09:12:42;;;;;;;2.10;1.08;;;36.90;36.00;37.40;100178.00;;;;4941323;28;89183;-65
2022/08/17 09:15:26;;;;;;;2.40;1.73;;;36.90;36.20;37.60;100184.00;;;;4931108;28;89913;-65
2022/08/17 09:18:13;;;;;;;1.90;1.48;;;37.00;35.60;37.60;100194.00;;;;4931827;28;89140;-65
2022/08/17 09:20:50;;;;;;;6.32;1.42;;;37.10;34.30;37.50;100186.00;;;;4951761;28;87797;-65
2022/08/17 09:23:35;;;;;;;2.65;1.70;;;37.00;34.70;37.40;100193.00;;;;4934070;28;88875;-64
2022/08/17 09:26:24;;;;;;;1.95;1.77;;;36.90;34.60;37.10;100187.00;;;;4936254;28;88518;-65
2022/08/17 09:29:00;;;;;;;1.88;1.35;;;36.80;34.90;37.00;100206.00;;;;4950985;28;87797;-65
2022/08/17 09:31:53;;;;;;;1.63;1.25;;;36.50;35.20;36.90;100198.00;;;;4948088;28;87684;-65
2022/08/17 09:34:37;;;;;;;3.03;1.67;;;36.40;34.20;36.80;100192.00;;;;4953982;28;87309;-66
2022/08/17 09:37:32;;;;;;;2.80;1.85;;;36.30;34.30;36.90;100186.00;;;;4954902;28;88119;-66
2022/08/17 09:40:26;;;;;;;1.40;1.30;;;36.30;34.50;37.00;100196.00;;;;4950304;28;103395;-65
2022/08/17 09:43:02;;;;;;;2.40;1.40;;;36.40;34.00;36.80;100184.00;;;;4950568;28;88952;-65
2022/08/17 09:45:44;;;;;;;2.08;1.33;;;36.30;33.90;36.60;100195.00;;;;4935987;28;96458;-65
2022/08/17 09:48:38;;;;;;;3.72;1.45;;;36.20;34.20;36.50;100194.00;;;;4943334;28;103082;-65
2022/08/17 09:51:14;;;;;;;2.67;1.52;;;36.00;34.80;36.50;100196.00;;;;4970829;28;88301;-65
2022/08/17 09:53:40;;;;;;;3.85;1.50;;;35.90;34.80;36.40;100189.00;;;;4955494;28;90497;-65
2022/08/17 09:56:36;;;;;;;3.20;1.83;;;35.80;34.50;36.30;100192.00;;;;4955817;28;87970;-65
2022/08/17 09:59:38;;;;;;;1.40;1.30;;;35.80;34.70;36.30;100185.00;;;;4954942;28;88822;-65
2022/08/17 10:02:53;;;;;;;1.60;1.30;;;35.70;34.40;36.20;100196.00;;;;4969173;28;103337;-65
2022/08/17 10:06:08;;;;;;;1.58;1.48;;;35.70;34.20;36.10;100198.00;;;;4955540;28;87650;-65
2022/08/17 10:09:02;;;;;;;3.03;1.65;;;35.60;34.30;36.20;100191.00;;;;4955011;28;87966;-65
2022/08/17 10:15:10;;;;;;;2.53;1.65;;;35.80;34.60;37.30;100176.00;;;;4954601;28;87726;-66
2022/08/17 10:18:14;;;;;;;1.20;1.10;;;36.40;34.40;37.90;100175.00;;;;4955680;28;87867;-65
2022/08/17 10:26:11;;;;;;;2.20;1.15;;;36.90;33.90;38.30;100171.00;;;;4935738;28;110685;-65
2022/08/17 10:26:34;;;;;;;0.73;0.73;;;37.60;31.40;38.50;100180.00;;;;4952768;28;87627;-65
2022/08/17 10:29:13;;;;;;;1.98;1.38;;;37.80;30.00;38.30;100183.00;;;;4952108;28;99454;-65
2022/08/17 10:32:02;;;;;;;1.20;1.10;;;37.60;30.00;38.10;100174.00;;;;4953263;28;88418;-65
2022/08/17 10:35:27;;;;;;;1.10;0.70;;;37.40;30.60;38.00;100187.00;;;;4952844;28;88139;-67
2022/08/17 10:37:55;;;;;;;1.38;0.85;;;37.30;30.90;37.80;100189.00;;;;4946872;28;87863;-64
2022/08/17 10:40:44;;;;;;;1.73;1.00;;;37.20;30.60;37.40;100186.00;;;;4953592;28;109719;-66
2022/08/17 10:43:43;;;;;;;2.20;0.93;;;36.90;31.00;37.10;100182.00;;;;4952912;28;88195;-65
2022/08/17 10:46:25;;;;;;;1.38;1.10;;;36.70;31.00;36.80;100181.00;;;;4955086;28;87707;-64
2022/08/17 10:49:15;;;;;;;1.45;1.27;;;36.40;30.70;36.60;100184.00;;;;4935953;28;87818;-64
2022/08/17 10:51:46;;;;;;;1.92;1.17;;;36.20;30.90;36.50;100181.00;;;;4955311;28;87821;-64
2022/08/17 10:54:35;;;;;;;2.47;1.38;;;36.00;31.40;36.70;100166.00;;;;4954508;28;88797;-64
2022/08/17 10:57:01;;;;;;;1.25;0.80;;;36.10;31.70;37.20;100174.00;;;;4953749;28;102602;-65
2022/08/17 10:59:35;;;;;;;1.05;0.95;;;36.40;31.70;37.60;100172.00;;;;4954175;28;110572;-65
2022/08/17 11:02:24;;;;;;;1.13;0.98;;;36.80;31.10;37.90;100175.00;;;;4954736;28;87887;-65
2022/08/17 11:04:59;;;;;;;0.63;0.63;;;37.00;30.60;38.40;100166.00;;;;4954583;28;89179;-65
2022/08/17 11:07:42;;;;;;;1.30;0.90;;;37.60;30.30;38.80;100166.00;;;;4953148;28;114330;-65
2022/08/17 11:10:35;;;;;;;0.85;0.73;;;37.90;29.80;38.90;100168.00;;;;4945079;28;89082;-65
2022/08/17 11:13:29;;;;;;;1.15;0.60;;;38.10;28.90;38.30;100171.00;;;;4954774;28;87796;-65
2022/08/17 11:16:15;;;;;;;0.80;0.80;;;37.90;28.30;37.80;100168.00;;;;4954819;28;87777;-65
2022/08/17 11:19:26;;;;;;;2.30;1.25;;;37.40;29.10;37.40;100171.00;;;;4956331;28;87712;-64
2022/08/17 11:22:41;;;;;;;1.20;1.08;;;37.00;29.60;37.40;100163.00;;;;4958288;28;88054;-64
2022/08/17 11:25:20;;;;;;;1.95;1.35;;;36.80;30.30;37.60;100165.00;;;;4958030;28;87768;-65
2022/08/17 11:27:53;;;;;;;0.70;0.57;;;36.90;30.60;37.70;100159.00;;;;4957091;28;103983;-65
2022/08/17 11:30:47;;;;;;;0.85;0.80;;;37.00;30.60;37.80;100163.00;;;;4954687;28;88175;-65
2022/08/17 11:33:52;;;;;;;2.53;1.10;;;37.20;30.40;37.80;100156.00;;;;4955892;28;87773;-64
2022/08/17 11:36:32;;;;;;;0.65;0.63;;;37.20;30.30;37.80;100159.00;;;;4956709;28;88704;-65
2022/08/17 11:39:32;;;;;;;0.95;0.90;;;37.20;29.90;37.50;100159.00;;;;4956670;28;88985;-65
2022/08/17 11:42:36;;;;;;;0.90;0.70;;;37.00;30.00;37.10;100149.00;;;;4955467;28;88568;-65
2022/08/17 11:45:22;;;;;;;1.92;1.15;;;36.70;30.20;36.80;100158.00;;;;4938395;28;87899;-64
2022/08/17 11:51:35;;;;;;;0.77;0.70;;;36.30;31.00;37.10;100153.00;;;;4945626;28;87933;-65
2022/08/17 11:54:00;;;;;;;1.92;1.15;;;36.50;31.10;37.30;100152.00;;;;4958535;28;88033;-65
2022/08/17 11:56:49;;;;;;;1.02;0.80;;;36.70;31.00;37.60;100147.00;;;;4957809;28;86858;-65